Time;durP1;ratioP1;P1;durP2;ratioP2;P2;SDS_P1;SDS_P2;PMS_P1;PMS_P2;Temp;Humidity;BMP_temperature;BMP_pressure;BME280_temperature;BME280_humidity;BME280_pressure;Samples;Min_cycle;Max_cycle;Signal;HPM_P1;HPM_P2
2023/12/08 00:00:20;;;;;;;28.08;5.78;;;9.30;99.90;;;;;;4909339;29;20031;-85
2023/12/08 00:02:47;;;;;;;26.98;4.68;;;9.20;99.90;;;;;;4915825;29;20904;-85
2023/12/08 00:05:13;;;;;;;25.50;5.97;;;9.30;99.90;;;;;;4913395;29;20031;-85
2023/12/08 00:07:40;;;;;;;20.95;5.00;;;9.20;99.90;;;;;;4905800;29;20027;-85
2023/12/08 00:10:06;;;;;;;23.13;5.93;;;9.20;99.90;;;;;;4910087;29;20114;-85
2023/12/08 00:12:31;;;;;;;19.38;5.30;;;9.10;99.90;;;;;;4908806;29;20163;-84
2023/12/08 00:14:57;;;;;;;20.20;5.03;;;9.10;99.90;;;;;;4914318;29;20119;-85
2023/12/08 00:17:23;;;;;;;20.65;5.30;;;9.10;99.90;;;;;;4913318;29;20088;-85
2023/12/08 00:19:49;;;;;;;27.00;5.53;;;9.00;99.90;;;;;;4915856;29;20480;-84
2023/12/08 00:22:14;;;;;;;24.23;5.50;;;9.00;99.90;;;;;;4908132;29;20473;-84
2023/12/08 00:24:40;;;;;;;27.02;5.75;;;9.00;99.90;;;;;;4906998;29;20553;-85
2023/12/08 00:27:08;;;;;;;22.08;4.80;;;9.10;99.90;;;;;;4910176;29;20419;-85
2023/12/08 00:29:33;;;;;;;29.33;5.35;;;9.20;99.90;;;;;;4913532;29;20035;-85
2023/12/08 00:31:59;;;;;;;28.45;6.05;;;9.20;99.90;;;;;;4916314;29;20019;-84
2023/12/08 00:34:24;;;;;;;17.15;5.03;;;9.10;99.90;;;;;;4911500;29;20056;-84
2023/12/08 00:36:50;;;;;;;26.35;5.80;;;9.10;99.90;;;;;;4904787;29;20035;-85
2023/12/08 00:39:17;;;;;;;19.00;5.03;;;9.10;99.90;;;;;;4908054;29;20654;-85
2023/12/08 00:41:42;;;;;;;26.02;5.43;;;9.10;99.90;;;;;;4907436;29;20083;-85
2023/12/08 00:44:08;;;;;;;28.13;5.55;;;9.00;99.90;;;;;;4903456;29;20253;-85
2023/12/08 00:46:34;;;;;;;28.15;5.68;;;9.00;99.90;;;;;;4910556;29;20039;-84
2023/12/08 00:49:00;;;;;;;24.08;5.07;;;8.90;99.90;;;;;;4910173;29;20512;-84
2023/12/08 00:51:26;;;;;;;34.97;5.95;;;8.90;99.90;;;;;;4906431;29;20415;-84
2023/12/08 00:53:52;;;;;;;32.53;6.35;;;8.90;99.90;;;;;;4907806;29;20032;-83
2023/12/08 00:56:17;;;;;;;29.00;5.57;;;8.80;99.90;;;;;;4907323;29;20404;-84
2023/12/08 00:58:43;;;;;;;30.63;6.10;;;8.80;99.90;;;;;;4900783;29;20039;-84
2023/12/08 01:01:09;;;;;;;33.92;7.65;;;8.80;99.90;;;;;;4915022;29;20441;-83
2023/12/08 01:03:35;;;;;;;32.97;6.30;;;8.80;99.90;;;;;;4913953;29;20024;-84
2023/12/08 01:06:01;;;;;;;28.40;6.55;;;8.80;99.90;;;;;;4910928;29;20028;-84
2023/12/08 01:08:26;;;;;;;34.42;6.22;;;8.80;99.90;;;;;;4906570;29;20477;-84
2023/12/08 01:10:52;;;;;;;32.33;6.80;;;8.80;99.90;;;;;;4912866;29;20039;-84
2023/12/08 01:13:19;;;;;;;40.90;6.78;;;8.70;99.90;;;;;;4912270;29;20155;-83
2023/12/08 01:15:45;;;;;;;34.80;6.53;;;8.70;99.90;;;;;;4908771;29;20277;-83
2023/12/08 01:18:10;;;;;;;37.35;6.75;;;8.80;99.90;;;;;;4922274;29;20027;-84
2023/12/08 01:20:36;;;;;;;28.85;5.93;;;8.70;99.90;;;;;;4908896;29;20115;-84
2023/12/08 01:23:02;;;;;;;22.73;5.13;;;8.70;99.90;;;;;;4907986;29;20024;-84
2023/12/08 01:25:27;;;;;;;29.50;5.03;;;8.70;99.90;;;;;;4908741;29;20507;-84
2023/12/08 01:27:54;;;;;;;29.40;5.22;;;8.70;99.90;;;;;;4907544;29;20714;-84
2023/12/08 01:30:20;;;;;;;31.90;5.88;;;8.60;99.90;;;;;;4902337;29;20485;-85
2023/12/08 01:32:46;;;;;;;34.90;5.20;;;8.70;99.90;;;;;;4905622;29;20032;-85
2023/12/08 01:35:12;;;;;;;28.52;4.97;;;8.70;99.90;;;;;;4911395;29;20123;-84
2023/12/08 01:37:37;;;;;;;24.88;5.22;;;8.70;99.90;;;;;;4904321;29;20055;-84
2023/12/08 01:40:04;;;;;;;21.17;4.43;;;8.70;99.90;;;;;;4902271;29;20099;-84
2023/12/08 01:42:29;;;;;;;21.10;4.60;;;8.70;99.90;;;;;;4911901;29;20059;-84
2023/12/08 01:44:55;;;;;;;29.25;4.72;;;8.60;99.90;;;;;;4906838;29;20491;-84
2023/12/08 01:47:21;;;;;;;28.15;5.75;;;8.70;99.90;;;;;;4902185;29;20055;-84
2023/12/08 01:49:47;;;;;;;21.40;4.63;;;8.70;99.90;;;;;;4907004;29;20092;-84
2023/12/08 01:52:21;;;;;;;29.60;4.63;;;8.60;99.90;;;;;;4905909;29;20031;-83
2023/12/08 01:54:48;;;;;;;21.45;3.72;;;8.60;99.90;;;;;;4905203;29;20124;-84
2023/12/08 01:57:14;;;;;;;26.70;4.45;;;8.60;99.90;;;;;;4908942;29;20048;-84
2023/12/08 01:59:40;;;;;;;25.80;4.72;;;8.60;99.90;;;;;;4907254;29;20401;-84
2023/12/08 02:02:05;;;;;;;17.98;3.67;;;8.60;99.90;;;;;;4904549;29;20027;-84
2023/12/08 02:04:31;;;;;;;16.02;3.60;;;8.50;99.90;;;;;;4908313;29;20468;-84
2023/12/08 02:06:57;;;;;;;23.05;4.80;;;8.50;99.90;;;;;;4905570;29;20075;-84
2023/12/08 02:09:23;;;;;;;17.33;3.40;;;8.50;99.90;;;;;;4908907;29;20023;-84
2023/12/08 02:11:49;;;;;;;20.80;5.10;;;8.50;99.90;;;;;;4906122;29;20024;-85
2023/12/08 02:14:15;;;;;;;24.88;4.90;;;8.50;99.90;;;;;;4903540;29;20481;-84
2023/12/08 02:16:52;;;;;;;23.38;4.53;;;8.40;99.90;;;;;;4909697;29;20051;-84
2023/12/08 02:19:18;;;;;;;21.92;4.15;;;8.40;99.90;;;;;;4909182;29;20043;-85
2023/12/08 02:21:44;;;;;;;18.60;4.40;;;8.40;99.90;;;;;;4909026;29;20031;-85
2023/12/08 02:24:10;;;;;;;14.10;3.85;;;8.30;99.90;;;;;;4911265;29;20032;-85
2023/12/08 02:26:36;;;;;;;27.63;4.68;;;8.30;99.90;;;;;;4911807;29;20079;-84
2023/12/08 02:29:05;;;;;;;20.25;4.30;;;8.30;99.90;;;;;;4908652;29;20512;-85
2023/12/08 02:31:38;;;;;;;33.63;5.10;;;8.30;99.90;;;;;;4906803;29;20119;-85
2023/12/08 02:34:06;;;;;;;35.00;5.28;;;8.30;99.90;;;;;;4906112;29;20039;-84
2023/12/08 02:36:34;;;;;;;24.40;3.97;;;8.20;99.90;;;;;;4910383;29;20118;-85
2023/12/08 02:39:01;;;;;;;20.10;3.75;;;8.20;99.90;;;;;;4908168;29;20107;-84
2023/12/08 02:41:27;;;;;;;17.35;3.50;;;8.20;99.90;;;;;;4910653;29;20031;-84
2023/12/08 02:43:52;;;;;;;16.65;3.30;;;8.10;99.90;;;;;;4906956;29;20552;-84
2023/12/08 02:46:18;;;;;;;18.90;3.40;;;8.10;99.90;;;;;;4903077;29;20043;-84
2023/12/08 02:48:44;;;;;;;19.25;4.18;;;8.00;99.90;;;;;;4907375;29;21083;-84
2023/12/08 02:51:09;;;;;;;14.32;3.15;;;8.00;99.90;;;;;;4914114;29;20032;-85
2023/12/08 02:53:35;;;;;;;19.27;3.10;;;7.90;99.90;;;;;;4914820;29;20058;-84
2023/12/08 02:56:00;;;;;;;22.42;4.40;;;7.90;99.90;;;;;;4908159;29;20389;-85
2023/12/08 02:58:26;;;;;;;24.80;4.82;;;7.80;99.90;;;;;;4910719;29;20608;-84
2023/12/08 03:00:52;;;;;;;26.95;5.22;;;7.70;99.90;;;;;;4906387;29;20036;-84
2023/12/08 03:03:17;;;;;;;33.67;5.50;;;7.70;99.90;;;;;;4910574;29;20059;-85
2023/12/08 03:05:43;;;;;;;25.80;5.15;;;7.60;99.90;;;;;;4910744;29;20036;-84
2023/12/08 03:08:08;;;;;;;26.15;5.13;;;7.60;99.90;;;;;;4911695;29;20043;-84
2023/12/08 03:10:34;;;;;;;19.05;4.80;;;7.50;99.90;;;;;;4908633;29;20162;-84
2023/12/08 03:13:01;;;;;;;22.67;4.75;;;7.50;99.90;;;;;;4910630;29;20032;-84
2023/12/08 03:15:26;;;;;;;32.95;4.82;;;7.50;99.90;;;;;;4910309;29;20032;-84
2023/12/08 03:17:52;;;;;;;21.38;4.95;;;7.60;99.90;;;;;;4906627;29;20046;-84
2023/12/08 03:20:17;;;;;;;21.02;4.55;;;7.50;99.90;;;;;;4910344;29;20374;-84
2023/12/08 03:22:43;;;;;;;13.50;3.78;;;7.50;99.90;;;;;;4916065;29;20072;-84
2023/12/08 03:25:08;;;;;;;72.15;6.53;;;7.40;99.90;;;;;;4911183;29;20028;-84
2023/12/08 03:27:34;;;;;;;32.03;4.13;;;7.20;99.90;;;;;;4909961;29;20170;-85
2023/12/08 03:30:00;;;;;;;46.33;4.55;;;7.10;99.90;;;;;;4911052;29;20496;-84
2023/12/08 03:32:25;;;;;;;12.57;3.08;;;7.00;99.90;;;;;;4908501;29;20086;-85
2023/12/08 03:34:51;;;;;;;15.20;3.38;;;6.90;99.90;;;;;;4912870;29;20115;-84
2023/12/08 03:37:16;;;;;;;31.02;3.63;;;6.80;99.90;;;;;;4909534;29;20815;-84
2023/12/08 03:39:44;;;;;;;18.70;3.42;;;6.60;99.90;;;;;;4905406;29;20202;-84
2023/12/08 03:42:10;;;;;;;30.83;4.63;;;6.50;99.90;;;;;;4911330;29;20028;-84
2023/12/08 03:44:35;;;;;;;25.30;3.17;;;6.50;99.90;;;;;;4914145;29;20051;-85
2023/12/08 03:47:01;;;;;;;18.38;2.08;;;6.50;99.90;;;;;;4919195;29;20451;-85
2023/12/08 03:49:27;;;;;;;27.38;3.83;;;6.30;99.90;;;;;;4910306;29;20047;-84
2023/12/08 03:51:52;;;;;;;8.60;2.03;;;6.20;99.90;;;;;;4917414;29;20051;-83
2023/12/08 03:54:18;;;;;;;44.92;5.07;;;6.30;99.90;;;;;;4917887;29;20043;-83
2023/12/08 03:56:44;;;;;;;9.68;3.15;;;6.20;99.90;;;;;;4911118;29;20115;-84
2023/12/08 03:59:09;;;;;;;12.38;2.45;;;6.30;99.90;;;;;;4911714;29;20024;-84
2023/12/08 04:01:35;;;;;;;16.45;3.15;;;6.20;99.90;;;;;;4908937;29;20508;-83
2023/12/08 04:04:01;;;;;;;7.78;2.25;;;6.10;99.90;;;;;;4909662;29;20668;-83
2023/12/08 04:06:26;;;;;;;5.63;1.70;;;6.10;99.90;;;;;;4911038;29;20032;-84
2023/12/08 04:08:52;;;;;;;7.43;2.35;;;6.10;99.90;;;;;;4912923;29;20116;-83
2023/12/08 04:11:18;;;;;;;7.15;2.10;;;6.10;99.90;;;;;;4917024;29;20110;-84
2023/12/08 04:13:43;;;;;;;13.20;2.00;;;5.90;99.90;;;;;;4912096;29;20102;-83
2023/12/08 04:16:09;;;;;;;9.90;2.10;;;5.80;99.90;;;;;;4914205;29;20544;-84
2023/12/08 04:18:35;;;;;;;7.05;2.15;;;5.70;99.90;;;;;;4914956;29;21343;-84
2023/12/08 04:21:01;;;;;;;8.52;2.08;;;5.70;99.90;;;;;;4913072;29;20024;-84
2023/12/08 04:23:27;;;;;;;5.65;1.75;;;5.60;99.90;;;;;;4919990;29;20071;-84
2023/12/08 04:25:52;;;;;;;10.00;1.80;;;5.50;99.90;;;;;;4912904;29;20053;-84
2023/12/08 04:28:18;;;;;;;7.47;2.15;;;5.40;99.90;;;;;;4907601;29;20030;-83
2023/12/08 04:30:43;;;;;;;5.22;2.20;;;5.30;99.90;;;;;;4910282;29;20028;-84
2023/12/08 04:33:09;;;;;;;4.18;2.50;;;5.40;99.90;;;;;;4908786;29;20071;-84
2023/12/08 04:35:35;;;;;;;13.18;3.40;;;5.50;99.90;;;;;;4908921;29;20040;-84
2023/12/08 04:38:01;;;;;;;9.88;2.20;;;5.50;99.90;;;;;;4908772;29;20067;-84
2023/12/08 04:40:26;;;;;;;7.95;2.10;;;5.50;99.90;;;;;;4910600;29;21225;-84
2023/12/08 04:42:52;;;;;;;13.90;2.92;;;5.50;99.90;;;;;;4911795;29;20090;-84
2023/12/08 04:45:17;;;;;;;17.60;3.25;;;5.50;99.90;;;;;;4911047;29;20440;-85
2023/12/08 04:47:43;;;;;;;6.70;2.63;;;5.50;99.90;;;;;;4913436;29;20043;-85
2023/12/08 04:50:09;;;;;;;10.50;2.80;;;5.50;99.90;;;;;;4910245;29;20075;-85
2023/12/08 04:52:34;;;;;;;9.57;3.10;;;5.40;99.90;;;;;;4914801;29;20042;-84
2023/12/08 04:55:04;;;;;;;8.73;3.20;;;5.30;99.90;;;;;;4916131;29;20028;-84
2023/12/08 04:57:29;;;;;;;9.68;2.67;;;5.40;99.90;;;;;;4910488;29;20031;-84
2023/12/08 04:59:55;;;;;;;10.90;3.05;;;5.40;99.90;;;;;;4910809;29;20399;-85
2023/12/08 05:02:21;;;;;;;10.20;3.63;;;5.30;99.90;;;;;;4913921;29;20039;-85
2023/12/08 05:04:46;;;;;;;10.60;2.67;;;5.50;99.90;;;;;;4907437;29;20110;-85
2023/12/08 05:07:12;;;;;;;2.28;1.65;;;5.40;99.90;;;;;;4911873;29;20055;-85
2023/12/08 05:09:37;;;;;;;11.77;2.40;;;5.30;99.90;;;;;;4911324;29;20032;-84
2023/12/08 05:12:03;;;;;;;10.90;3.40;;;5.20;99.90;;;;;;4909503;29;20079;-84
2023/12/08 05:14:29;;;;;;;10.10;2.95;;;5.10;99.90;;;;;;4913192;29;20386;-84
2023/12/08 05:16:54;;;;;;;11.10;3.38;;;5.00;99.90;;;;;;4914698;29;20441;-85
2023/12/08 05:19:20;;;;;;;12.98;3.28;;;5.00;99.90;;;;;;4912115;29;20477;-84
2023/12/08 05:21:46;;;;;;;8.68;3.03;;;5.00;99.90;;;;;;4916111;29;20028;-84
2023/12/08 05:24:11;;;;;;;11.55;3.65;;;5.00;99.90;;;;;;4912025;29;20056;-84
2023/12/08 05:26:37;;;;;;;11.38;3.53;;;5.00;99.90;;;;;;4909555;29;20039;-85
2023/12/08 05:29:02;;;;;;;15.00;4.40;;;5.10;99.90;;;;;;4902113;29;20066;-84
2023/12/08 05:31:28;;;;;;;19.08;4.15;;;5.10;99.90;;;;;;4905762;29;20039;-84
2023/12/08 05:33:53;;;;;;;20.92;4.63;;;5.10;99.90;;;;;;4911483;29;20087;-84
2023/12/08 05:36:19;;;;;;;15.25;3.90;;;5.00;99.90;;;;;;4907606;29;20087;-84
2023/12/08 05:38:45;;;;;;;13.95;3.50;;;5.10;99.90;;;;;;4910622;29;20044;-85
2023/12/08 05:41:11;;;;;;;16.60;4.00;;;4.90;99.90;;;;;;4905231;29;20039;-84
2023/12/08 05:43:37;;;;;;;8.27;3.58;;;4.90;99.90;;;;;;4902275;29;20123;-85
2023/12/08 05:46:03;;;;;;;13.02;3.50;;;4.70;99.90;;;;;;4908680;29;20154;-85
2023/12/08 05:48:28;;;;;;;17.77;4.38;;;4.70;99.90;;;;;;4907374;29;20366;-84
2023/12/08 05:50:55;;;;;;;18.05;3.97;;;4.50;99.90;;;;;;4907802;29;20172;-84
2023/12/08 05:53:20;;;;;;;14.80;4.70;;;4.50;99.90;;;;;;4917455;29;20032;-84
2023/12/08 05:55:46;;;;;;;10.55;3.88;;;4.70;99.90;;;;;;4906455;29;20043;-84
2023/12/08 05:58:12;;;;;;;9.70;3.10;;;4.70;99.90;;;;;;4905797;29;20086;-84
2023/12/08 06:00:38;;;;;;;12.55;3.67;;;4.70;99.90;;;;;;4902770;29;20576;-84
2023/12/08 06:03:03;;;;;;;7.47;3.20;;;4.70;99.90;;;;;;4906867;29;20268;-84
2023/12/08 06:05:30;;;;;;;10.57;3.45;;;4.70;99.90;;;;;;4909236;29;20571;-84
2023/12/08 06:07:55;;;;;;;9.35;3.35;;;4.70;99.90;;;;;;4909810;29;20090;-84
2023/12/08 06:10:22;;;;;;;9.32;3.63;;;4.70;99.90;;;;;;4904362;29;20040;-84
2023/12/08 06:12:47;;;;;;;8.20;2.70;;;4.60;99.90;;;;;;4905696;29;20083;-84
2023/12/08 06:15:13;;;;;;;6.20;3.08;;;4.60;99.90;;;;;;4906147;29;20556;-84
2023/12/08 06:17:39;;;;;;;12.90;3.78;;;4.70;99.90;;;;;;4914924;29;20015;-84
2023/12/08 06:20:05;;;;;;;8.23;2.70;;;4.60;99.90;;;;;;4916602;29;20079;-84
2023/12/08 06:22:31;;;;;;;7.18;2.85;;;4.60;99.90;;;;;;4911243;29;20078;-84
2023/12/08 06:24:57;;;;;;;11.07;3.40;;;4.70;99.90;;;;;;4908124;29;20421;-84
2023/12/08 06:27:22;;;;;;;8.20;4.10;;;4.70;99.90;;;;;;4906867;29;20035;-83
2023/12/08 06:29:50;;;;;;;8.93;3.33;;;4.80;99.90;;;;;;4911477;29;20102;-84
2023/12/08 06:32:16;;;;;;;9.98;3.40;;;4.70;99.90;;;;;;4909580;29;20036;-84
2023/12/08 06:34:43;;;;;;;10.10;3.30;;;4.80;99.90;;;;;;4904922;29;20075;-85
2023/12/08 06:37:08;;;;;;;7.57;3.40;;;4.90;99.90;;;;;;4911267;29;20387;-84
2023/12/08 06:39:34;;;;;;;8.13;3.15;;;5.00;99.90;;;;;;4913114;29;20388;-85
2023/12/08 06:42:00;;;;;;;8.07;2.97;;;4.90;99.90;;;;;;4913257;29;20051;-85
2023/12/08 06:44:25;;;;;;;8.32;3.10;;;5.10;99.90;;;;;;4914610;29;20044;-85
2023/12/08 06:46:51;;;;;;;6.68;2.70;;;5.10;99.90;;;;;;4916314;29;20119;-84
2023/12/08 06:49:17;;;;;;;6.10;2.80;;;5.20;99.90;;;;;;4913422;29;20035;-84
2023/12/08 06:51:42;;;;;;;10.20;3.65;;;5.20;99.90;;;;;;4912979;29;20055;-84
2023/12/08 06:54:08;;;;;;;11.05;4.15;;;5.10;99.90;;;;;;4910033;29;20369;-84
2023/12/08 06:56:34;;;;;;;17.58;4.95;;;5.10;99.90;;;;;;4907733;29;20512;-85
2023/12/08 06:58:59;;;;;;;17.23;4.18;;;5.00;99.90;;;;;;4915023;29;20035;-82
2023/12/08 07:01:25;;;;;;;16.00;4.15;;;5.00;99.90;;;;;;4916886;29;20028;-83
2023/12/08 07:03:50;;;;;;;10.60;4.15;;;4.80;99.90;;;;;;4907346;29;20034;-84
2023/12/08 07:06:16;;;;;;;10.38;4.10;;;4.90;99.90;;;;;;4911700;29;20040;-83
2023/12/08 07:08:42;;;;;;;14.43;4.60;;;4.80;99.90;;;;;;4911006;29;20032;-83
2023/12/08 07:11:08;;;;;;;8.40;3.33;;;4.70;99.90;;;;;;4908662;29;20124;-83
2023/12/08 07:13:35;;;;;;;8.40;3.55;;;4.60;99.90;;;;;;4912769;29;20110;-83
2023/12/08 07:16:00;;;;;;;9.88;3.40;;;4.50;99.90;;;;;;4914390;29;20532;-83
2023/12/08 07:18:26;;;;;;;10.13;3.33;;;4.50;99.90;;;;;;4913949;29;20036;-83
2023/12/08 07:20:52;;;;;;;17.17;5.32;;;4.40;99.90;;;;;;4916652;29;20107;-83
2023/12/08 07:23:18;;;;;;;15.55;5.00;;;4.50;99.90;;;;;;4912338;29;20468;-86
2023/12/08 07:25:44;;;;;;;14.07;5.05;;;4.50;99.90;;;;;;4911172;29;20032;-83
2023/12/08 07:28:09;;;;;;;14.57;5.30;;;4.60;99.90;;;;;;4912064;29;20392;-85
2023/12/08 07:30:35;;;;;;;9.80;3.85;;;4.50;99.90;;;;;;4910348;29;20032;-85
2023/12/08 17:57:04;;;;;;;27.23;4.30;;;9.50;99.90;;;;;;4914237;29;20170;-81
2023/12/08 17:59:30;;;;;;;29.88;3.05;;;9.60;99.90;;;;;;4920206;29;20231;-81
2023/12/08 18:01:56;;;;;;;22.80;3.33;;;9.50;99.90;;;;;;4917113;29;20200;-81
2023/12/08 18:04:21;;;;;;;24.05;4.65;;;9.50;99.90;;;;;;4913797;29;20475;-81
2023/12/08 18:06:47;;;;;;;16.67;3.15;;;9.40;99.90;;;;;;4916113;29;20416;-81
2023/12/08 18:09:14;;;;;;;25.23;5.05;;;9.40;99.90;;;;;;4920421;29;21141;-81
2023/12/08 18:11:39;;;;;;;34.72;5.25;;;9.40;99.90;;;;;;4916699;29;20040;-81
2023/12/08 18:14:05;;;;;;;28.35;4.68;;;9.40;99.90;;;;;;4922496;29;20307;-81
2023/12/08 18:16:32;;;;;;;27.55;4.93;;;9.40;99.90;;;;;;4921331;29;20031;-80
2023/12/08 18:18:58;;;;;;;25.02;4.88;;;9.40;99.90;;;;;;4919366;29;20028;-79
2023/12/08 18:21:27;;;;;;;24.63;3.85;;;9.40;99.90;;;;;;4919209;29;20040;-81
2023/12/08 18:23:53;;;;;;;21.13;3.28;;;9.50;99.90;;;;;;4917716;29;20046;-79
2023/12/08 18:26:19;;;;;;;28.55;4.07;;;9.40;99.90;;;;;;4917104;29;20195;-81
2023/12/08 18:28:45;;;;;;;24.75;3.78;;;9.40;99.90;;;;;;4920327;29;20531;-81
2023/12/08 18:31:28;;;;;;;21.80;3.55;;;9.40;99.90;;;;;;4919626;29;20122;-80
2023/12/08 18:33:56;;;;;;;23.58;4.68;;;9.40;99.90;;;;;;4916144;29;20440;-81
2023/12/08 18:36:23;;;;;;;28.45;4.10;;;9.40;99.90;;;;;;4918230;29;20023;-79
2023/12/08 18:38:51;;;;;;;30.95;4.50;;;9.40;99.90;;;;;;4919641;29;20059;-81
2023/12/08 18:41:17;;;;;;;32.42;5.15;;;9.40;99.90;;;;;;4918773;29;20563;-81
2023/12/08 18:43:44;;;;;;;28.23;4.10;;;9.30;99.90;;;;;;4918556;29;20601;-80
2023/12/08 18:46:10;;;;;;;32.33;4.20;;;9.40;99.90;;;;;;4919222;29;20035;-80
2023/12/08 18:48:36;;;;;;;25.42;4.22;;;9.40;99.90;;;;;;4920971;29;20035;-80
2023/12/08 18:51:02;;;;;;;28.02;3.90;;;9.40;99.90;;;;;;4916311;29;20111;-79
2023/12/08 18:53:32;;;;;;;27.70;3.88;;;9.30;99.90;;;;;;4923222;29;20579;-79
2023/12/08 18:55:58;;;;;;;29.52;4.22;;;9.40;99.90;;;;;;4917870;29;20275;-79
2023/12/08 18:58:23;;;;;;;24.98;4.00;;;9.30;99.90;;;;;;4918809;29;20028;-79
2023/12/08 19:00:49;;;;;;;26.90;4.35;;;9.30;99.90;;;;;;4912580;29;20555;-79
2023/12/08 19:03:15;;;;;;;22.15;3.50;;;9.20;99.90;;;;;;4925376;29;20044;-81
2023/12/08 19:05:42;;;;;;;24.38;4.10;;;9.40;99.90;;;;;;4922893;29;20468;-81
2023/12/08 19:08:08;;;;;;;21.58;4.20;;;9.30;99.90;;;;;;4928365;29;20513;-79
2023/12/08 19:10:35;;;;;;;41.92;5.68;;;9.30;99.90;;;;;;4924603;29;20123;-79
2023/12/08 19:13:03;;;;;;;35.65;4.43;;;9.30;99.90;;;;;;4945894;29;20047;-80
2023/12/08 19:15:29;;;;;;;21.63;3.70;;;9.30;99.90;;;;;;4946207;29;20047;-80
2023/12/08 19:17:54;;;;;;;22.95;4.32;;;9.30;99.90;;;;;;4945669;29;20044;-79
2023/12/08 19:20:20;;;;;;;19.10;3.47;;;9.20;99.90;;;;;;4933769;29;20032;-80
2023/12/08 19:22:46;;;;;;;25.52;4.45;;;9.20;99.90;;;;;;4917176;29;20115;-80
2023/12/08 19:25:11;;;;;;;20.10;3.67;;;9.40;99.90;;;;;;4917588;29;20028;-80
2023/12/08 19:27:37;;;;;;;17.60;3.03;;;9.40;99.90;;;;;;4915787;29;20608;-80
2023/12/08 19:30:03;;;;;;;19.27;3.83;;;9.30;99.90;;;;;;4919599;29;20047;-80
2023/12/08 19:32:29;;;;;;;20.23;2.67;;;9.40;99.90;;;;;;4916506;29;20023;-80
2023/12/08 19:34:54;;;;;;;16.95;3.03;;;9.40;99.90;;;;;;4911326;29;20040;-80
2023/12/08 19:37:20;;;;;;;14.57;3.00;;;9.50;99.90;;;;;;4918208;29;20404;-80
2023/12/08 19:39:46;;;;;;;14.98;2.92;;;9.50;99.90;;;;;;4912460;29;20060;-79
2023/12/08 19:42:13;;;;;;;15.40;3.33;;;9.50;99.90;;;;;;4912570;29;20038;-81
2023/12/08 19:44:39;;;;;;;21.70;3.38;;;9.40;99.90;;;;;;4918918;29;20039;-80
2023/12/08 19:47:05;;;;;;;16.02;2.92;;;9.40;99.90;;;;;;4917202;29;20052;-80
2023/12/08 19:49:31;;;;;;;20.98;2.45;;;9.40;99.90;;;;;;4917250;29;20032;-79
2023/12/08 19:51:56;;;;;;;14.75;2.13;;;9.40;99.90;;;;;;4917247;29;20089;-81
2023/12/08 19:54:22;;;;;;;19.13;2.40;;;9.50;99.90;;;;;;4920561;29;20070;-81
2023/12/08 19:56:47;;;;;;;16.77;2.95;;;9.50;99.90;;;;;;4919237;29;20543;-81
2023/12/08 19:59:13;;;;;;;18.02;2.95;;;9.40;99.80;;;;;;4915696;29;20062;-80
2023/12/08 20:01:39;;;;;;;17.27;3.17;;;9.40;99.70;;;;;;4915034;29;20046;-81
2023/12/08 20:04:05;;;;;;;15.18;2.42;;;9.30;99.90;;;;;;4913192;29;20024;-81
2023/12/08 20:06:31;;;;;;;11.20;2.50;;;9.30;99.10;;;;;;4914200;29;20024;-80
2023/12/08 20:08:56;;;;;;;17.58;2.28;;;9.30;98.50;;;;;;4918737;29;20039;-80
2023/12/08 20:11:22;;;;;;;12.77;1.88;;;9.30;98.10;;;;;;4915161;29;20043;-81
2023/12/08 20:13:48;;;;;;;14.43;2.25;;;9.30;97.90;;;;;;4915003;29;20500;-80
2023/12/08 20:16:14;;;;;;;10.77;2.03;;;9.20;98.10;;;;;;4922579;29;20043;-81
2023/12/08 20:18:40;;;;;;;10.23;1.52;;;9.20;97.60;;;;;;4917649;29;20178;-79
2023/12/08 20:21:06;;;;;;;12.85;1.42;;;9.30;97.10;;;;;;4916241;29;20122;-79
2023/12/08 20:23:34;;;;;;;9.10;1.60;;;9.20;96.90;;;;;;4916913;29;20082;-80
2023/12/08 20:26:01;;;;;;;10.25;1.60;;;9.30;96.60;;;;;;4914107;29;20039;-80
2023/12/08 20:28:26;;;;;;;13.70;1.80;;;9.20;96.70;;;;;;4919556;29;20035;-81
2023/12/08 20:30:52;;;;;;;9.02;1.92;;;9.20;96.70;;;;;;4922493;29;20031;-80
2023/12/08 20:33:18;;;;;;;12.23;1.95;;;9.20;96.70;;;;;;4918361;29;21051;-80
2023/12/08 20:35:43;;;;;;;8.88;1.70;;;9.10;97.20;;;;;;4916677;29;20043;-80
2023/12/08 20:38:09;;;;;;;8.80;2.17;;;8.90;98.00;;;;;;4917581;29;20725;-81
2023/12/08 20:40:35;;;;;;;10.60;1.75;;;8.90;98.50;;;;;;4913839;29;20115;-82
2023/12/08 20:43:01;;;;;;;11.13;1.73;;;8.90;98.70;;;;;;4915576;29;20066;-80
2023/12/08 20:45:27;;;;;;;7.10;1.50;;;8.90;99.20;;;;;;4911013;29;20054;-80
2023/12/08 20:47:52;;;;;;;12.80;2.25;;;8.90;99.50;;;;;;4918087;29;20467;-80
2023/12/08 20:50:18;;;;;;;11.60;1.88;;;8.80;99.90;;;;;;4918620;29;20408;-82
2023/12/08 20:52:44;;;;;;;11.30;1.73;;;8.80;99.90;;;;;;4919555;29;20753;-81
2023/12/08 20:55:10;;;;;;;9.95;1.70;;;8.70;99.90;;;;;;4919200;29;20066;-81
2023/12/08 20:57:36;;;;;;;15.25;1.63;;;8.80;99.90;;;;;;4915523;29;20040;-80
2023/12/08 21:00:03;;;;;;;13.45;2.25;;;8.70;99.90;;;;;;4914380;29;20063;-81
2023/12/08 21:02:29;;;;;;;7.53;1.40;;;8.80;99.90;;;;;;4919961;29;20206;-82
2023/12/08 21:04:55;;;;;;;11.45;1.92;;;8.80;99.90;;;;;;4914282;29;20432;-81
2023/12/08 21:07:20;;;;;;;7.30;1.60;;;8.70;99.90;;;;;;4914810;29;20262;-81
2023/12/08 21:09:46;;;;;;;13.77;2.00;;;8.80;99.90;;;;;;4911306;29;20051;-79
2023/12/08 21:12:11;;;;;;;19.10;2.83;;;8.70;99.90;;;;;;4911286;29;20058;-79
2023/12/08 21:14:37;;;;;;;13.90;1.80;;;8.60;99.90;;;;;;4924736;29;20036;-79
2023/12/08 21:17:03;;;;;;;8.32;2.00;;;8.60;99.90;;;;;;4937947;29;20130;-80
2023/12/08 21:19:30;;;;;;;17.15;3.17;;;8.60;99.90;;;;;;4939449;29;20171;-80
2023/12/08 21:21:56;;;;;;;15.65;2.10;;;8.70;99.90;;;;;;4933089;29;20028;-82
2023/12/08 21:24:21;;;;;;;13.85;2.88;;;8.70;99.90;;;;;;4927544;29;20055;-81
2023/12/08 21:26:47;;;;;;;11.80;2.15;;;8.70;99.90;;;;;;4912260;29;20039;-81
2023/12/08 21:29:12;;;;;;;14.30;3.13;;;8.80;99.90;;;;;;4916044;29;20489;-80
2023/12/08 21:31:44;;;;;;;9.07;2.00;;;8.80;99.90;;;;;;4915960;29;20473;-81
2023/12/08 21:34:10;;;;;;;13.55;2.25;;;8.80;99.90;;;;;;4913495;29;20036;-80
2023/12/08 21:36:36;;;;;;;10.63;2.28;;;8.90;99.90;;;;;;4916383;29;20310;-80
2023/12/08 21:39:03;;;;;;;8.85;1.33;;;8.90;99.90;;;;;;4918149;29;20153;-80
2023/12/08 21:41:29;;;;;;;7.65;1.90;;;9.00;99.90;;;;;;4911153;29;20035;-81
2023/12/08 21:43:57;;;;;;;13.73;1.98;;;9.00;99.90;;;;;;4916473;29;20490;-81
2023/12/08 21:46:23;;;;;;;12.88;2.42;;;9.20;99.90;;;;;;4919344;29;20028;-81
2023/12/08 21:48:49;;;;;;;13.52;2.30;;;9.20;99.90;;;;;;4917397;29;20031;-80
2023/12/08 21:51:15;;;;;;;13.82;2.80;;;9.30;99.90;;;;;;4913421;29;20042;-81
2023/12/08 21:53:40;;;;;;;10.98;1.75;;;9.30;99.90;;;;;;4917525;29;20066;-81
2023/12/08 21:56:06;;;;;;;17.63;2.38;;;9.40;99.90;;;;;;4916013;29;20403;-81
2023/12/08 21:58:32;;;;;;;11.20;2.17;;;9.40;99.90;;;;;;4919758;29;20034;-81
2023/12/08 22:00:58;;;;;;;9.90;1.35;;;9.40;99.90;;;;;;4918903;29;20042;-81
2023/12/08 22:03:23;;;;;;;9.38;1.98;;;9.40;99.90;;;;;;4913026;29;20818;-80
2023/12/08 22:05:49;;;;;;;11.77;3.05;;;9.40;99.90;;;;;;4917565;29;20130;-80
2023/12/08 22:08:14;;;;;;;14.85;1.92;;;9.50;99.90;;;;;;4915388;29;20118;-81
2023/12/08 22:10:40;;;;;;;8.80;2.33;;;9.50;99.90;;;;;;4912277;29;20031;-81
2023/12/08 22:13:06;;;;;;;14.23;2.00;;;9.40;99.90;;;;;;4913825;29;20274;-81
2023/12/08 22:15:31;;;;;;;13.20;1.92;;;9.50;99.90;;;;;;4918491;29;20729;-81
2023/12/08 22:17:57;;;;;;;13.55;2.33;;;9.40;99.90;;;;;;4915615;29;20046;-82
2023/12/08 22:20:22;;;;;;;9.40;1.70;;;9.40;99.90;;;;;;4915165;29;20250;-80
2023/12/08 22:22:48;;;;;;;10.52;2.60;;;9.50;99.90;;;;;;4920554;29;20023;-80
2023/12/08 22:25:14;;;;;;;12.68;2.10;;;9.50;99.90;;;;;;4915078;29;20036;-80
2023/12/08 22:27:39;;;;;;;18.02;2.78;;;9.50;99.90;;;;;;4916266;29;20031;-81
2023/12/08 22:30:06;;;;;;;18.95;1.98;;;9.50;99.90;;;;;;4914484;29;20040;-81
2023/12/08 22:32:31;;;;;;;8.80;1.38;;;9.40;99.90;;;;;;4918655;29;20087;-80
2023/12/08 22:34:57;;;;;;;5.78;1.45;;;9.40;99.90;;;;;;4915702;29;20449;-80
2023/12/08 22:37:23;;;;;;;7.15;1.15;;;9.40;99.30;;;;;;4914789;29;20035;-81
2023/12/08 22:39:49;;;;;;;9.73;1.30;;;9.50;99.20;;;;;;4912858;29;20093;-80
2023/12/08 22:42:17;;;;;;;9.40;1.38;;;9.40;98.90;;;;;;4911238;29;20032;-80
2023/12/08 22:44:42;;;;;;;9.85;1.33;;;9.40;99.30;;;;;;4907885;29;20444;-80
2023/12/08 22:47:09;;;;;;;8.25;1.10;;;9.30;99.30;;;;;;4917004;29;20024;-80
2023/12/08 22:49:34;;;;;;;7.45;1.50;;;9.30;99.50;;;;;;4914685;29;20413;-80
2023/12/08 22:52:00;;;;;;;8.00;1.10;;;9.30;99.10;;;;;;4913950;29;20031;-80
2023/12/08 22:54:26;;;;;;;7.85;1.15;;;9.30;99.00;;;;;;4916217;29;20031;-80
2023/12/08 22:56:51;;;;;;;9.25;1.25;;;9.30;99.20;;;;;;4917545;29;20511;-80
2023/12/08 22:59:17;;;;;;;9.90;1.27;;;9.30;99.30;;;;;;4916285;29;20166;-80
2023/12/08 23:01:42;;;;;;;8.82;1.42;;;9.30;98.90;;;;;;4914515;29;20028;-79
2023/12/08 23:04:09;;;;;;;7.68;1.13;;;9.30;98.90;;;;;;4911074;28;20303;-79
2023/12/08 23:06:35;;;;;;;7.05;1.00;;;9.40;98.60;;;;;;4912290;29;20063;-78